sensor_id;sensor_type;location;lat;lon;timestamp;P1;P2;P0
62599;PMS7003;48671;48.922;2.346;2024-02-26T00:01:14;7.50;5.50;3.50
62599;PMS7003;48671;48.922;2.346;2024-02-26T00:03:40;6.67;5.67;5.00
62599;PMS7003;48671;48.922;2.346;2024-02-26T00:06:07;3.00;3.00;1.25
62599;PMS7003;48671;48.922;2.346;2024-02-26T00:08:32;6.25;5.75;4.00
62599;PMS7003;48671;48.922;2.346;2024-02-26T00:10:58;5.33;5.00;4.33
62599;PMS7003;48671;48.922;2.346;2024-02-26T00:13:23;10.00;6.33;5.67
62599;PMS7003;48671;48.922;2.346;2024-02-26T00:15:48;6.75;6.75;5.00
62599;PMS7003;48671;48.922;2.346;2024-02-26T00:18:13;9.50;5.75;3.00
62599;PMS7003;48671;48.922;2.346;2024-02-26T00:20:39;6.67;6.67;5.33
62599;PMS7003;48671;48.922;2.346;2024-02-26T00:23:05;7.00;7.00;5.00
62599;PMS7003;48671;48.922;2.346;2024-02-26T00:25:30;6.00;6.00;5.00
62599;PMS7003;48671;48.922;2.346;2024-02-26T00:27:55;5.25;5.25;5.00
62599;PMS7003;48671;48.922;2.346;2024-02-26T00:30:21;5.50;5.50;5.00
62599;PMS7003;48671;48.922;2.346;2024-02-26T00:39:24;8.75;7.25;6.00
62599;PMS7003;48671;48.922;2.346;2024-02-26T00:41:51;6.50;6.00;4.00
62599;PMS7003;48671;48.922;2.346;2024-02-26T00:44:20;6.00;2.75;1.75
62599;PMS7003;48671;48.922;2.346;2024-02-26T00:46:45;12.50;6.25;2.75
62599;PMS7003;48671;48.922;2.346;2024-02-26T00:49:36;5.25;5.25;4.50
62599;PMS7003;48671;48.922;2.346;2024-02-26T00:52:16;6.75;4.50;2.25
62599;PMS7003;48671;48.922;2.346;2024-02-26T00:54:47;4.50;3.00;2.25
62599;PMS7003;48671;48.922;2.346;2024-02-26T00:57:18;6.25;5.25;4.00
62599;PMS7003;48671;48.922;2.346;2024-02-26T00:59:43;6.75;5.50;3.50
62599;PMS7003;48671;48.922;2.346;2024-02-26T01:02:11;5.00;4.00;3.00
62599;PMS7003;48671;48.922;2.346;2024-02-26T01:04:36;4.50;4.50;3.00
62599;PMS7003;48671;48.922;2.346;2024-02-26T01:07:06;7.25;4.50;2.75
62599;PMS7003;48671;48.922;2.346;2024-02-26T01:09:31;3.25;3.25;2.75
62599;PMS7003;48671;48.922;2.346;2024-02-26T01:28:01;4.00;4.00;2.75
62599;PMS7003;48671;48.922;2.346;2024-02-26T01:30:26;6.25;2.75;2.50
62599;PMS7003;48671;48.922;2.346;2024-02-26T01:32:52;2.75;2.00;2.00
62599;PMS7003;48671;48.922;2.346;2024-02-26T01:35:17;2.25;2.25;2.25
62599;PMS7003;48671;48.922;2.346;2024-02-26T01:37:44;7.00;4.50;2.50
62599;PMS7003;48671;48.922;2.346;2024-02-26T01:40:09;7.00;5.00;3.00
62599;PMS7003;48671;48.922;2.346;2024-02-26T01:42:37;5.00;2.00;1.00
62599;PMS7003;48671;48.922;2.346;2024-02-26T01:45:03;2.25;2.25;2.00
62599;PMS7003;48671;48.922;2.346;2024-02-26T01:47:30;7.50;3.25;2.00
62599;PMS7003;48671;48.922;2.346;2024-02-26T01:49:56;4.75;4.00;2.75
62599;PMS7003;48671;48.922;2.346;2024-02-26T01:52:22;5.25;3.00;3.00
62599;PMS7003;48671;48.922;2.346;2024-02-26T01:54:48;2.50;2.00;2.00
62599;PMS7003;48671;48.922;2.346;2024-02-26T01:57:14;5.25;3.00;2.75
62599;PMS7003;48671;48.922;2.346;2024-02-26T01:59:39;9.00;3.00;3.00
62599;PMS7003;48671;48.922;2.346;2024-02-26T02:02:07;8.50;3.50;3.00
62599;PMS7003;48671;48.922;2.346;2024-02-26T02:04:35;5.00;2.00;1.00
62599;PMS7003;48671;48.922;2.346;2024-02-26T02:07:01;5.25;2.00;1.25
62599;PMS7003;48671;48.922;2.346;2024-02-26T02:09:28;5.00;3.00;2.00
62599;PMS7003;48671;48.922;2.346;2024-02-26T02:11:53;5.50;4.00;2.25
62599;PMS7003;48671;48.922;2.346;2024-02-26T02:14:18;4.00;2.50;2.00
62599;PMS7003;48671;48.922;2.346;2024-02-26T02:16:44;4.50;2.50;1.00
62599;PMS7003;48671;48.922;2.346;2024-02-26T02:19:09;2.50;2.25;1.25
62599;PMS7003;48671;48.922;2.346;2024-02-26T02:21:34;2.75;2.00;1.25
62599;PMS7003;48671;48.922;2.346;2024-02-26T02:24:00;1.75;1.00;1.00
62599;PMS7003;48671;48.922;2.346;2024-02-26T02:26:25;5.50;1.00;0.50
62599;PMS7003;48671;48.922;2.346;2024-02-26T02:28:51;3.75;1.00;0.50
62599;PMS7003;48671;48.922;2.346;2024-02-26T02:31:16;6.25;3.50;1.00
62599;PMS7003;48671;48.922;2.346;2024-02-26T02:33:42;2.75;1.50;1.00
62599;PMS7003;48671;48.922;2.346;2024-02-26T02:36:08;1.50;1.50;1.50
62599;PMS7003;48671;48.922;2.346;2024-02-26T02:38:35;3.50;2.00;0.25
62599;PMS7003;48671;48.922;2.346;2024-02-26T02:41:01;5.00;2.00;1.00
62599;PMS7003;48671;48.922;2.346;2024-02-26T02:43:27;2.75;2.75;1.00
62599;PMS7003;48671;48.922;2.346;2024-02-26T02:45:52;1.67;1.00;1.00
62599;PMS7003;48671;48.922;2.346;2024-02-26T02:48:17;2.00;2.00;1.00
62599;PMS7003;48671;48.922;2.346;2024-02-26T02:50:43;5.75;3.00;1.00
62599;PMS7003;48671;48.922;2.346;2024-02-26T02:53:08;6.00;1.75;1.00
62599;PMS7003;48671;48.922;2.346;2024-02-26T02:55:33;8.75;1.25;1.00
62599;PMS7003;48671;48.922;2.346;2024-02-26T02:57:59;5.25;2.50;2.00
62599;PMS7003;48671;48.922;2.346;2024-02-26T03:00:24;1.75;1.00;1.00
62599;PMS7003;48671;48.922;2.346;2024-02-26T03:02:50;0.75;0.50;0.25
62599;PMS7003;48671;48.922;2.346;2024-02-26T03:05:15;6.00;2.25;1.00
62599;PMS7003;48671;48.922;2.346;2024-02-26T03:07:40;1.25;1.25;1.00
62599;PMS7003;48671;48.922;2.346;2024-02-26T03:10:06;1.00;1.00;0.00
62599;PMS7003;48671;48.922;2.346;2024-02-26T03:12:32;2.25;2.00;0.50
62599;PMS7003;48671;48.922;2.346;2024-02-26T03:14:58;2.75;2.25;0.50
62599;PMS7003;48671;48.922;2.346;2024-02-26T03:17:25;5.00;1.00;0.00
62599;PMS7003;48671;48.922;2.346;2024-02-26T03:19:51;1.50;1.25;0.50
62599;PMS7003;48671;48.922;2.346;2024-02-26T03:22:18;0.50;0.00;0.00
62599;PMS7003;48671;48.922;2.346;2024-02-26T03:24:44;4.25;1.00;0.25
62599;PMS7003;48671;48.922;2.346;2024-02-26T03:27:10;6.67;3.00;1.67
62599;PMS7003;48671;48.922;2.346;2024-02-26T03:29:36;2.00;1.00;0.00
62599;PMS7003;48671;48.922;2.346;2024-02-26T03:32:02;5.00;1.25;1.00
62599;PMS7003;48671;48.922;2.346;2024-02-26T03:34:28;6.75;2.00;1.00
62599;PMS7003;48671;48.922;2.346;2024-02-26T03:36:53;5.00;2.00;1.00
62599;PMS7003;48671;48.922;2.346;2024-02-26T03:39:18;1.00;1.00;1.00
62599;PMS7003;48671;48.922;2.346;2024-02-26T03:41:44;4.75;2.75;2.00
62599;PMS7003;48671;48.922;2.346;2024-02-26T03:44:09;7.00;5.00;2.00
62599;PMS7003;48671;48.922;2.346;2024-02-26T03:46:34;6.33;2.00;1.00
62599;PMS7003;48671;48.922;2.346;2024-02-26T03:49:00;2.25;2.00;1.00
62599;PMS7003;48671;48.922;2.346;2024-02-26T03:51:25;5.25;1.75;0.50
62599;PMS7003;48671;48.922;2.346;2024-02-26T03:53:53;5.75;4.00;2.00
62599;PMS7003;48671;48.922;2.346;2024-02-26T03:56:18;3.00;1.00;0.00
62599;PMS7003;48671;48.922;2.346;2024-02-26T03:58:43;4.00;2.00;1.00
62599;PMS7003;48671;48.922;2.346;2024-02-26T04:01:09;3.50;2.25;2.00
62599;PMS7003;48671;48.922;2.346;2024-02-26T04:03:35;9.25;1.75;1.00
62599;PMS7003;48671;48.922;2.346;2024-02-26T04:06:00;4.00;2.25;2.00
62599;PMS7003;48671;48.922;2.346;2024-02-26T04:08:26;2.25;2.25;0.75
62599;PMS7003;48671;48.922;2.346;2024-02-26T04:10:51;6.50;4.50;3.50
62599;PMS7003;48671;48.922;2.346;2024-02-26T04:13:17;0.50;0.00;0.00
62599;PMS7003;48671;48.922;2.346;2024-02-26T04:15:43;5.75;3.00;1.00
62599;PMS7003;48671;48.922;2.346;2024-02-26T04:18:08;2.00;2.00;1.00
62599;PMS7003;48671;48.922;2.346;2024-02-26T04:20:34;3.50;1.00;1.00
62599;PMS7003;48671;48.922;2.346;2024-02-26T04:22:59;2.75;2.00;1.00
62599;PMS7003;48671;48.922;2.346;2024-02-26T04:25:24;2.50;2.25;1.00
62599;PMS7003;48671;48.922;2.346;2024-02-26T04:27:50;4.00;3.00;2.00
62599;PMS7003;48671;48.922;2.346;2024-02-26T04:30:15;2.50;2.00;1.00
62599;PMS7003;48671;48.922;2.346;2024-02-26T04:32:42;5.00;4.00;2.25
62599;PMS7003;48671;48.922;2.346;2024-02-26T04:35:07;5.25;2.75;1.50
62599;PMS7003;48671;48.922;2.346;2024-02-26T04:37:33;2.50;1.00;0.75
62599;PMS7003;48671;48.922;2.346;2024-02-26T04:39:58;9.00;4.33;2.00
62599;PMS7003;48671;48.922;2.346;2024-02-26T04:42:24;1.50;1.50;1.00
62599;PMS7003;48671;48.922;2.346;2024-02-26T04:44:49;5.00;2.00;1.50
62599;PMS7003;48671;48.922;2.346;2024-02-26T04:47:15;3.00;2.00;1.00
62599;PMS7003;48671;48.922;2.346;2024-02-26T04:49:40;2.00;2.00;1.00
62599;PMS7003;48671;48.922;2.346;2024-02-26T04:52:06;6.00;2.00;1.25
62599;PMS7003;48671;48.922;2.346;2024-02-26T04:54:31;3.50;1.50;1.00
62599;PMS7003;48671;48.922;2.346;2024-02-26T04:56:56;8.50;3.00;1.75
62599;PMS7003;48671;48.922;2.346;2024-02-26T04:59:21;4.00;2.00;2.00
62599;PMS7003;48671;48.922;2.346;2024-02-26T05:01:47;6.00;2.00;1.00
62599;PMS7003;48671;48.922;2.346;2024-02-26T05:04:12;2.00;2.00;1.00
62599;PMS7003;48671;48.922;2.346;2024-02-26T05:06:37;3.00;3.00;1.33
62599;PMS7003;48671;48.922;2.346;2024-02-26T05:09:03;2.00;2.00;1.00
62599;PMS7003;48671;48.922;2.346;2024-02-26T05:11:29;4.50;2.75;1.00
62599;PMS7003;48671;48.922;2.346;2024-02-26T05:13:54;4.00;1.00;1.00
62599;PMS7003;48671;48.922;2.346;2024-02-26T05:16:19;5.00;2.00;1.50
62599;PMS7003;48671;48.922;2.346;2024-02-26T05:18:46;2.00;0.25;0.25
62599;PMS7003;48671;48.922;2.346;2024-02-26T05:21:12;4.50;3.00;1.25
62599;PMS7003;48671;48.922;2.346;2024-02-26T05:23:37;2.00;0.00;0.00
62599;PMS7003;48671;48.922;2.346;2024-02-26T05:26:02;6.00;1.00;0.25
62599;PMS7003;48671;48.922;2.346;2024-02-26T05:28:28;3.50;1.25;1.00
62599;PMS7003;48671;48.922;2.346;2024-02-26T05:30:53;6.50;5.00;3.00
62599;PMS7003;48671;48.922;2.346;2024-02-26T05:33:19;2.75;2.00;1.50
62599;PMS7003;48671;48.922;2.346;2024-02-26T05:35:44;3.50;1.75;1.00
62599;PMS7003;48671;48.922;2.346;2024-02-26T05:38:09;5.50;4.00;1.00
62599;PMS7003;48671;48.922;2.346;2024-02-26T05:40:35;4.50;3.50;2.00
62599;PMS7003;48671;48.922;2.346;2024-02-26T05:43:00;5.00;4.50;2.00
62599;PMS7003;48671;48.922;2.346;2024-02-26T05:45:26;5.75;2.25;1.00
62599;PMS7003;48671;48.922;2.346;2024-02-26T05:47:51;5.75;2.00;1.25
62599;PMS7003;48671;48.922;2.346;2024-02-26T05:50:16;5.75;5.50;2.00
62599;PMS7003;48671;48.922;2.346;2024-02-26T05:52:42;9.00;3.50;2.25
62599;PMS7003;48671;48.922;2.346;2024-02-26T05:55:07;3.50;2.25;1.00
62599;PMS7003;48671;48.922;2.346;2024-02-26T05:57:33;5.25;3.50;2.00
62599;PMS7003;48671;48.922;2.346;2024-02-26T05:59:59;6.00;4.50;2.00
62599;PMS7003;48671;48.922;2.346;2024-02-26T06:02:31;3.50;3.50;2.25
62599;PMS7003;48671;48.922;2.346;2024-02-26T06:04:57;6.00;5.00;2.25
62599;PMS7003;48671;48.922;2.346;2024-02-26T06:07:23;10.50;5.50;2.50
62599;PMS7003;48671;48.922;2.346;2024-02-26T06:09:48;2.00;2.00;2.00
62599;PMS7003;48671;48.922;2.346;2024-02-26T06:12:14;6.75;2.75;2.00
62599;PMS7003;48671;48.922;2.346;2024-02-26T06:14:39;8.75;5.25;3.00
62599;PMS7003;48671;48.922;2.346;2024-02-26T06:17:05;5.00;2.00;2.00
62599;PMS7003;48671;48.922;2.346;2024-02-26T06:19:32;3.00;3.00;2.00
62599;PMS7003;48671;48.922;2.346;2024-02-26T06:21:57;3.00;3.00;2.00
62599;PMS7003;48671;48.922;2.346;2024-02-26T06:24:22;2.33;2.33;1.00
62599;PMS7003;48671;48.922;2.346;2024-02-26T06:26:48;2.25;1.00;0.00
62599;PMS7003;48671;48.922;2.346;2024-02-26T06:29:13;6.50;6.50;4.50
62599;PMS7003;48671;48.922;2.346;2024-02-26T06:31:39;10.75;5.75;3.00
62599;PMS7003;48671;48.922;2.346;2024-02-26T06:34:04;11.75;9.00;7.00
62599;PMS7003;48671;48.922;2.346;2024-02-26T06:36:30;6.00;6.00;4.00
62599;PMS7003;48671;48.922;2.346;2024-02-26T06:38:57;7.50;4.00;2.50
62599;PMS7003;48671;48.922;2.346;2024-02-26T06:41:22;14.00;5.75;2.50
62599;PMS7003;48671;48.922;2.346;2024-02-26T06:43:52;9.25;5.00;3.00
62599;PMS7003;48671;48.922;2.346;2024-02-26T06:46:20;8.75;5.25;3.50
62599;PMS7003;48671;48.922;2.346;2024-02-26T06:48:47;8.25;6.00;5.00
62599;PMS7003;48671;48.922;2.346;2024-02-26T06:51:13;9.75;7.50;5.00
62599;PMS7003;48671;48.922;2.346;2024-02-26T06:53:38;6.75;2.25;1.25
62599;PMS7003;48671;48.922;2.346;2024-02-26T06:56:04;7.25;4.25;2.00
62599;PMS7003;48671;48.922;2.346;2024-02-26T06:58:29;7.00;6.25;4.50
62599;PMS7003;48671;48.922;2.346;2024-02-26T07:00:55;10.00;7.75;5.75
62599;PMS7003;48671;48.922;2.346;2024-02-26T07:03:20;15.00;6.50;5.00
62599;PMS7003;48671;48.922;2.346;2024-02-26T07:05:47;8.00;6.00;4.50
62599;PMS7003;48671;48.922;2.346;2024-02-26T07:08:13;9.50;7.00;6.00
62599;PMS7003;48671;48.922;2.346;2024-02-26T07:10:38;8.75;5.75;4.50
62599;PMS7003;48671;48.922;2.346;2024-02-26T07:13:04;7.75;7.50;5.50
62599;PMS7003;48671;48.922;2.346;2024-02-26T07:15:29;10.33;7.00;5.00
62599;PMS7003;48671;48.922;2.346;2024-02-26T07:17:55;6.50;6.00;3.00
62599;PMS7003;48671;48.922;2.346;2024-02-26T07:20:20;5.75;4.50;3.00
62599;PMS7003;48671;48.922;2.346;2024-02-26T07:22:45;10.50;9.75;6.00
62599;PMS7003;48671;48.922;2.346;2024-02-26T07:25:12;9.75;6.25;5.50
62599;PMS7003;48671;48.922;2.346;2024-02-26T07:27:39;9.50;4.50;1.75
62599;PMS7003;48671;48.922;2.346;2024-02-26T07:30:05;7.00;6.00;5.00
62599;PMS7003;48671;48.922;2.346;2024-02-26T07:32:33;18.50;9.75;6.00
62599;PMS7003;48671;48.922;2.346;2024-02-26T07:34:58;11.00;5.75;5.00
62599;PMS7003;48671;48.922;2.346;2024-02-26T07:37:23;13.25;9.50;5.75
62599;PMS7003;48671;48.922;2.346;2024-02-26T07:39:49;9.25;6.00;5.25
62599;PMS7003;48671;48.922;2.346;2024-02-26T07:42:14;10.25;8.00;5.00
62599;PMS7003;48671;48.922;2.346;2024-02-26T07:44:39;12.33;7.00;5.00
62599;PMS7003;48671;48.922;2.346;2024-02-26T07:47:07;8.00;4.75;2.75
62599;PMS7003;48671;48.922;2.346;2024-02-26T07:49:34;11.25;10.75;7.00
62599;PMS7003;48671;48.922;2.346;2024-02-26T07:51:59;14.25;6.00;5.00
62599;PMS7003;48671;48.922;2.346;2024-02-26T07:54:24;8.00;6.25;5.00
62599;PMS7003;48671;48.922;2.346;2024-02-26T07:56:50;9.75;6.50;5.00
62599;PMS7003;48671;48.922;2.346;2024-02-26T07:59:15;11.75;6.75;5.25
62599;PMS7003;48671;48.922;2.346;2024-02-26T08:01:40;11.75;7.50;5.00
62599;PMS7003;48671;48.922;2.346;2024-02-26T08:04:06;10.75;8.75;6.75
62599;PMS7003;48671;48.922;2.346;2024-02-26T08:06:33;9.00;6.00;4.50
62599;PMS7003;48671;48.922;2.346;2024-02-26T08:08:58;13.67;7.00;5.00
62599;PMS7003;48671;48.922;2.346;2024-02-26T08:11:23;7.00;6.50;5.50
62599;PMS7003;48671;48.922;2.346;2024-02-26T08:13:48;8.67;8.33;5.67
62599;PMS7003;48671;48.922;2.346;2024-02-26T08:16:14;9.67;3.00;2.00
62599;PMS7003;48671;48.922;2.346;2024-02-26T08:18:39;11.00;11.00;9.00
62599;PMS7003;48671;48.922;2.346;2024-02-26T08:21:05;7.50;5.25;3.50
62599;PMS7003;48671;48.922;2.346;2024-02-26T08:23:30;9.25;8.00;5.25
62599;PMS7003;48671;48.922;2.346;2024-02-26T08:25:56;10.75;6.75;5.00
62599;PMS7003;48671;48.922;2.346;2024-02-26T08:28:22;11.75;9.00;5.50
62599;PMS7003;48671;48.922;2.346;2024-02-26T08:30:47;11.50;7.00;5.75
62599;PMS7003;48671;48.922;2.346;2024-02-26T08:33:12;8.33;7.00;5.00
62599;PMS7003;48671;48.922;2.346;2024-02-26T08:35:41;7.50;6.00;4.00
62599;PMS7003;48671;48.922;2.346;2024-02-26T08:38:10;12.00;6.75;4.00
62599;PMS7003;48671;48.922;2.346;2024-02-26T08:40:35;9.00;6.33;4.33
62599;PMS7003;48671;48.922;2.346;2024-02-26T08:43:00;13.00;6.67;5.00
62599;PMS7003;48671;48.922;2.346;2024-02-26T08:45:25;7.67;5.33;3.00
62599;PMS7003;48671;48.922;2.346;2024-02-26T08:47:52;11.00;9.50;6.00
62599;PMS7003;48671;48.922;2.346;2024-02-26T08:50:17;18.75;9.75;7.00
62599;PMS7003;48671;48.922;2.346;2024-02-26T08:52:42;14.25;13.50;8.75
62599;PMS7003;48671;48.922;2.346;2024-02-26T08:55:09;11.50;9.50;6.00
62599;PMS7003;48671;48.922;2.346;2024-02-26T08:57:34;7.75;5.75;5.00
62599;PMS7003;48671;48.922;2.346;2024-02-26T09:00:00;15.75;11.25;8.25
62599;PMS7003;48671;48.922;2.346;2024-02-26T09:02:34;8.50;7.00;5.00
62599;PMS7003;48671;48.922;2.346;2024-02-26T09:05:00;10.75;9.75;7.00
62599;PMS7003;48671;48.922;2.346;2024-02-26T09:07:25;16.25;12.25;7.00
62599;PMS7003;48671;48.922;2.346;2024-02-26T09:09:54;16.50;14.25;9.00
62599;PMS7003;48671;48.922;2.346;2024-02-26T09:12:19;10.25;9.50;7.00
62599;PMS7003;48671;48.922;2.346;2024-02-26T09:14:44;12.50;7.50;6.25
62599;PMS7003;48671;48.922;2.346;2024-02-26T09:17:10;12.00;7.00;6.33
62599;PMS7003;48671;48.922;2.346;2024-02-26T09:19:35;9.00;6.00;5.33
62599;PMS7003;48671;48.922;2.346;2024-02-26T09:22:00;11.67;10.00;6.67
62599;PMS7003;48671;48.922;2.346;2024-02-26T09:24:25;16.67;12.67;9.33
62599;PMS7003;48671;48.922;2.346;2024-02-26T09:26:51;18.00;10.25;7.00
62599;PMS7003;48671;48.922;2.346;2024-02-26T09:29:17;10.25;6.25;4.00
62599;PMS7003;48671;48.922;2.346;2024-02-26T09:31:42;10.50;10.50;6.50
62599;PMS7003;48671;48.922;2.346;2024-02-26T09:34:08;9.00;6.75;6.00
62599;PMS7003;48671;48.922;2.346;2024-02-26T09:36:34;12.75;11.00;9.50
62599;PMS7003;48671;48.922;2.346;2024-02-26T09:38:59;9.75;6.50;5.00
62599;PMS7003;48671;48.922;2.346;2024-02-26T09:41:24;6.00;3.00;3.00
62599;PMS7003;48671;48.922;2.346;2024-02-26T09:43:54;6.00;5.00;3.00
62599;PMS7003;48671;48.922;2.346;2024-02-26T09:46:21;9.25;6.50;3.50
62599;PMS7003;48671;48.922;2.346;2024-02-26T09:48:47;8.75;2.25;1.00
62599;PMS7003;48671;48.922;2.346;2024-02-26T09:51:13;6.00;4.50;3.00
62599;PMS7003;48671;48.922;2.346;2024-02-26T09:53:39;7.25;6.00;4.00
62599;PMS7003;48671;48.922;2.346;2024-02-26T09:56:09;11.00;8.00;6.25
62599;PMS7003;48671;48.922;2.346;2024-02-26T09:58:37;6.00;2.25;1.50
62599;PMS7003;48671;48.922;2.346;2024-02-26T10:01:04;3.00;3.00;3.00
62599;PMS7003;48671;48.922;2.346;2024-02-26T10:03:40;5.50;3.00;3.00
62599;PMS7003;48671;48.922;2.346;2024-02-26T10:06:12;8.25;6.00;5.00
62599;PMS7003;48671;48.922;2.346;2024-02-26T10:08:38;5.00;4.50;2.50
62599;PMS7003;48671;48.922;2.346;2024-02-26T10:11:05;7.50;5.25;3.00
62599;PMS7003;48671;48.922;2.346;2024-02-26T10:13:33;5.00;5.00;3.00
62599;PMS7003;48671;48.922;2.346;2024-02-26T10:16:00;4.50;4.50;2.00
62599;PMS7003;48671;48.922;2.346;2024-02-26T10:18:28;7.50;5.00;3.00
62599;PMS7003;48671;48.922;2.346;2024-02-26T10:21:13;5.50;4.50;2.50
62599;PMS7003;48671;48.922;2.346;2024-02-26T10:23:39;7.50;5.50;3.00
62599;PMS7003;48671;48.922;2.346;2024-02-26T10:26:04;5.00;2.75;2.00
62599;PMS7003;48671;48.922;2.346;2024-02-26T10:28:29;6.50;3.00;2.00
62599;PMS7003;48671;48.922;2.346;2024-02-26T10:30:55;2.75;2.00;1.00
62599;PMS7003;48671;48.922;2.346;2024-02-26T10:33:21;5.75;3.00;3.00
62599;PMS7003;48671;48.922;2.346;2024-02-26T10:35:47;6.50;3.00;2.75
62599;PMS7003;48671;48.922;2.346;2024-02-26T10:38:13;6.25;6.00;3.00
62599;PMS7003;48671;48.922;2.346;2024-02-26T10:40:38;6.75;5.00;3.00
62599;PMS7003;48671;48.922;2.346;2024-02-26T10:43:04;3.75;3.75;2.25
62599;PMS7003;48671;48.922;2.346;2024-02-26T10:45:29;4.00;2.50;2.00
62599;PMS7003;48671;48.922;2.346;2024-02-26T10:47:54;5.00;5.00;4.00
62599;PMS7003;48671;48.922;2.346;2024-02-26T10:50:20;4.75;4.75;3.00
62599;PMS7003;48671;48.922;2.346;2024-02-26T10:52:45;8.50;7.75;5.00
62599;PMS7003;48671;48.922;2.346;2024-02-26T10:55:13;8.00;6.00;5.00
62599;PMS7003;48671;48.922;2.346;2024-02-26T10:57:43;10.75;6.75;5.75
62599;PMS7003;48671;48.922;2.346;2024-02-26T11:00:10;7.75;7.50;5.25
62599;PMS7003;48671;48.922;2.346;2024-02-26T11:02:53;8.50;7.00;5.00
62599;PMS7003;48671;48.922;2.346;2024-02-26T11:05:21;7.00;7.00;6.00
62599;PMS7003;48671;48.922;2.346;2024-02-26T11:07:47;7.50;6.00;4.50
62599;PMS7003;48671;48.922;2.346;2024-02-26T11:10:18;8.00;7.00;6.00
62599;PMS7003;48671;48.922;2.346;2024-02-26T11:12:43;7.00;7.00;6.00
62599;PMS7003;48671;48.922;2.346;2024-02-26T11:15:10;6.50;6.50;6.00
62599;PMS7003;48671;48.922;2.346;2024-02-26T11:17:36;6.00;4.50;3.00
62599;PMS7003;48671;48.922;2.346;2024-02-26T11:20:03;1.75;1.75;1.00
62599;PMS7003;48671;48.922;2.346;2024-02-26T11:22:30;2.00;2.00;2.00
62599;PMS7003;48671;48.922;2.346;2024-02-26T11:24:57;10.75;8.00;6.00
62599;PMS7003;48671;48.922;2.346;2024-02-26T11:27:23;16.75;12.25;9.25
62599;PMS7003;48671;48.922;2.346;2024-02-26T11:29:55;13.00;10.25;8.00
62599;PMS7003;48671;48.922;2.346;2024-02-26T11:32:22;6.00;6.00;5.00
62599;PMS7003;48671;48.922;2.346;2024-02-26T11:34:48;5.00;5.00;3.00
62599;PMS7003;48671;48.922;2.346;2024-02-26T11:37:15;6.25;2.50;2.00
62599;PMS7003;48671;48.922;2.346;2024-02-26T11:39:42;1.00;1.00;1.00
62599;PMS7003;48671;48.922;2.346;2024-02-26T11:42:09;1.75;1.00;1.00
62599;PMS7003;48671;48.922;2.346;2024-02-26T11:44:36;1.00;1.00;1.00
62599;PMS7003;48671;48.922;2.346;2024-02-26T11:47:35;2.00;2.00;1.00
62599;PMS7003;48671;48.922;2.346;2024-02-26T11:49:53;1.00;1.00;1.00
62599;PMS7003;48671;48.922;2.346;2024-02-26T11:52:18;4.00;2.50;2.00
62599;PMS7003;48671;48.922;2.346;2024-02-26T12:00:10;2.00;2.00;1.50
62599;PMS7003;48671;48.922;2.346;2024-02-26T12:02:40;5.00;3.00;1.00
62599;PMS7003;48671;48.922;2.346;2024-02-26T12:05:15;6.25;3.00;2.00
62599;PMS7003;48671;48.922;2.346;2024-02-26T12:07:45;6.75;5.50;2.50
62599;PMS7003;48671;48.922;2.346;2024-02-26T12:10:23;6.50;2.25;2.00
62599;PMS7003;48671;48.922;2.346;2024-02-26T12:13:00;3.50;3.50;2.75
62599;PMS7003;48671;48.922;2.346;2024-02-26T12:15:42;1.00;1.00;0.00
62599;PMS7003;48671;48.922;2.346;2024-02-26T12:18:19;3.00;3.00;3.00
62599;PMS7003;48671;48.922;2.346;2024-02-26T12:20:46;2.50;2.50;1.00
62599;PMS7003;48671;48.922;2.346;2024-02-26T12:23:15;5.00;5.00;3.00
62599;PMS7003;48671;48.922;2.346;2024-02-26T12:25:42;2.00;2.00;2.00
62599;PMS7003;48671;48.922;2.346;2024-02-26T12:28:09;10.00;7.00;5.00
62599;PMS7003;48671;48.922;2.346;2024-02-26T12:30:34;7.50;5.00;3.00
62599;PMS7003;48671;48.922;2.346;2024-02-26T12:33:00;3.00;2.00;1.50
62599;PMS7003;48671;48.922;2.346;2024-02-26T12:35:26;11.50;6.00;5.00
62599;PMS7003;48671;48.922;2.346;2024-02-26T12:37:52;11.25;9.50;7.00
62599;PMS7003;48671;48.922;2.346;2024-02-26T12:40:19;5.00;5.00;3.00
62599;PMS7003;48671;48.922;2.346;2024-02-26T12:42:45;5.75;3.50;2.75
62599;PMS7003;48671;48.922;2.346;2024-02-26T12:45:12;5.00;5.00;3.00
62599;PMS7003;48671;48.922;2.346;2024-02-26T12:47:39;3.00;3.00;2.00
62599;PMS7003;48671;48.922;2.346;2024-02-26T12:50:06;4.50;4.50;3.00
62599;PMS7003;48671;48.922;2.346;2024-02-26T12:52:40;7.00;6.50;5.00
62599;PMS7003;48671;48.922;2.346;2024-02-26T12:55:13;6.50;5.25;3.00
62599;PMS7003;48671;48.922;2.346;2024-02-26T12:57:40;2.50;2.50;2.00
62599;PMS7003;48671;48.922;2.346;2024-02-26T13:00:08;6.00;5.25;3.00
62599;PMS7003;48671;48.922;2.346;2024-02-26T13:02:40;3.50;3.00;2.25
62599;PMS7003;48671;48.922;2.346;2024-02-26T13:05:10;6.25;3.00;2.00
62599;PMS7003;48671;48.922;2.346;2024-02-26T13:07:43;4.50;4.50;2.00
62599;PMS7003;48671;48.922;2.346;2024-02-26T13:10:20;1.50;1.50;1.00
62599;PMS7003;48671;48.922;2.346;2024-02-26T13:12:46;2.00;2.00;1.00
62599;PMS7003;48671;48.922;2.346;2024-02-26T13:15:19;1.25;1.25;1.00
62599;PMS7003;48671;48.922;2.346;2024-02-26T13:17:46;3.00;3.00;1.00
62599;PMS7003;48671;48.922;2.346;2024-02-26T13:20:30;5.75;2.25;2.00
62599;PMS7003;48671;48.922;2.346;2024-02-26T13:23:05;2.25;2.25;2.00
62599;PMS7003;48671;48.922;2.346;2024-02-26T13:25:32;2.75;2.75;2.00
62599;PMS7003;48671;48.922;2.346;2024-02-26T13:30:53;3.75;3.00;3.00
62599;PMS7003;48671;48.922;2.346;2024-02-26T13:33:25;5.00;5.00;3.00
62599;PMS7003;48671;48.922;2.346;2024-02-26T13:35:54;2.75;2.75;2.00
62599;PMS7003;48671;48.922;2.346;2024-02-26T13:38:21;5.50;4.00;2.00
62599;PMS7003;48671;48.922;2.346;2024-02-26T13:40:47;6.00;4.00;2.75
62599;PMS7003;48671;48.922;2.346;2024-02-26T13:43:13;3.50;1.75;1.50
62599;PMS7003;48671;48.922;2.346;2024-02-26T13:45:38;5.75;2.00;2.00
62599;PMS7003;48671;48.922;2.346;2024-02-26T13:48:09;6.00;6.00;3.00
62599;PMS7003;48671;48.922;2.346;2024-02-26T13:50:45;4.00;2.00;2.00
62599;PMS7003;48671;48.922;2.346;2024-02-26T13:53:11;3.00;2.50;1.00
62599;PMS7003;48671;48.922;2.346;2024-02-26T13:55:40;3.00;2.00;1.00
62599;PMS7003;48671;48.922;2.346;2024-02-26T13:58:08;2.75;2.75;2.25
62599;PMS7003;48671;48.922;2.346;2024-02-26T14:00:47;4.75;4.75;2.75
62599;PMS7003;48671;48.922;2.346;2024-02-26T14:03:13;1.00;1.00;1.00
62599;PMS7003;48671;48.922;2.346;2024-02-26T14:05:38;1.00;1.00;0.75
62599;PMS7003;48671;48.922;2.346;2024-02-26T14:08:05;1.00;1.00;1.00
62599;PMS7003;48671;48.922;2.346;2024-02-26T14:10:31;1.50;1.00;0.50
62599;PMS7003;48671;48.922;2.346;2024-02-26T14:12:57;2.50;2.50;1.00
62599;PMS7003;48671;48.922;2.346;2024-02-26T14:15:22;2.00;2.00;2.00
62599;PMS7003;48671;48.922;2.346;2024-02-26T14:17:49;3.00;2.00;2.00
62599;PMS7003;48671;48.922;2.346;2024-02-26T14:20:21;6.75;2.75;2.00
62599;PMS7003;48671;48.922;2.346;2024-02-26T14:22:47;2.50;2.50;2.00
62599;PMS7003;48671;48.922;2.346;2024-02-26T14:25:13;2.75;2.75;1.75
62599;PMS7003;48671;48.922;2.346;2024-02-26T14:27:38;4.00;1.75;1.00
62599;PMS7003;48671;48.922;2.346;2024-02-26T14:30:04;2.00;2.00;1.75
62599;PMS7003;48671;48.922;2.346;2024-02-26T14:32:30;2.00;2.00;1.00
62599;PMS7003;48671;48.922;2.346;2024-02-26T14:34:59;1.75;1.75;1.00
62599;PMS7003;48671;48.922;2.346;2024-02-26T14:37:28;3.00;2.50;2.00
62599;PMS7003;48671;48.922;2.346;2024-02-26T14:39:53;5.00;3.00;2.00
62599;PMS7003;48671;48.922;2.346;2024-02-26T14:42:19;3.00;3.00;2.00
62599;PMS7003;48671;48.922;2.346;2024-02-26T14:44:44;2.75;2.75;1.25
62599;PMS7003;48671;48.922;2.346;2024-02-26T14:47:12;2.00;2.00;1.25
62599;PMS7003;48671;48.922;2.346;2024-02-26T14:49:44;3.00;1.50;1.00